createdAt,value
2023-01-07T00:01:11.642Z,2.80
2023-01-07T00:03:38.460Z,2.30
2023-01-07T00:06:06.250Z,2.20
2023-01-07T00:08:33.642Z,2.20
2023-01-07T00:11:04.063Z,2.08
2023-01-07T00:13:30.531Z,2.28
2023-01-07T00:16:00.222Z,3.00
2023-01-07T00:18:26.881Z,2.13
2023-01-07T00:20:56.301Z,2.20
2023-01-07T00:23:24.398Z,2.38
2023-01-07T00:25:51.072Z,2.13
2023-01-07T00:28:17.774Z,2.15
2023-01-07T00:30:44.204Z,2.03
2023-01-07T00:33:14.336Z,1.73
2023-01-07T00:35:41.039Z,2.20
2023-01-07T00:38:07.335Z,2.00
2023-01-07T00:40:34.079Z,2.03
2023-01-07T00:43:06.946Z,2.10
2023-01-07T00:45:34.297Z,2.33
2023-01-07T00:48:01.127Z,1.85
2023-01-07T00:50:34.501Z,2.40
2023-01-07T00:53:00.891Z,2.15
2023-01-07T00:55:27.811Z,2.10
2023-01-07T01:00:21.509Z,2.20
2023-01-07T01:02:48.276Z,2.47
2023-01-07T01:05:14.691Z,2.33
2023-01-07T01:07:41.266Z,1.95
2023-01-07T01:10:08.710Z,2.20
2023-01-07T01:12:35.408Z,2.13
2023-01-07T01:15:02.496Z,2.00
2023-01-07T01:17:28.698Z,2.13
2023-01-07T01:19:54.931Z,2.45
2023-01-07T01:22:21.181Z,1.92
2023-01-07T01:24:47.441Z,2.20
2023-01-07T01:27:13.681Z,2.33
2023-01-07T01:29:39.921Z,2.13
2023-01-07T01:32:06.215Z,2.55
2023-01-07T01:34:32.435Z,2.55
2023-01-07T01:36:58.678Z,2.35
2023-01-07T01:39:24.978Z,2.40
2023-01-07T01:41:51.246Z,2.47
2023-01-07T01:44:36.297Z,2.70
2023-01-07T01:47:08.180Z,2.10
2023-01-07T01:49:36.929Z,2.08
2023-01-07T01:52:06.851Z,2.17
2023-01-07T01:54:33.701Z,3.03
2023-01-07T01:57:02.214Z,2.53
2023-01-07T01:59:30.680Z,3.22
2023-01-07T02:01:57.146Z,2.78
2023-01-07T02:04:25.768Z,2.47
2023-01-07T02:06:58.692Z,2.42
2023-01-07T02:09:25.007Z,2.15
2023-01-07T02:11:51.175Z,2.15
2023-01-07T02:14:26.282Z,2.20
2023-01-07T02:17:03.795Z,2.35
2023-01-07T02:22:08.788Z,2.35
2023-01-07T02:24:41.851Z,2.25
2023-01-07T02:27:23.468Z,2.00
2023-01-07T02:29:54.377Z,2.30
2023-01-07T02:32:34.317Z,2.45
2023-01-07T02:35:19.365Z,2.58
2023-01-07T02:40:38.030Z,2.60
2023-01-07T02:43:13.311Z,2.05
2023-01-07T02:45:44.322Z,2.47
2023-01-07T02:48:13.271Z,2.08
2023-01-07T02:50:39.676Z,2.28
2023-01-07T02:53:07.985Z,2.92
2023-01-07T02:55:40.584Z,2.22
2023-01-07T02:58:25.612Z,2.72
2023-01-07T03:00:52.033Z,2.50
2023-01-07T03:03:36.564Z,2.55
2023-01-07T03:06:18.321Z,2.58
2023-01-07T03:08:58.666Z,2.85
2023-01-07T03:11:26.205Z,3.00
2023-01-07T03:13:55.625Z,2.70
2023-01-07T03:16:24.592Z,3.13
2023-01-07T03:19:00.704Z,2.85
2023-01-07T03:21:28.250Z,2.28
2023-01-07T03:23:55.937Z,2.58
2023-01-07T03:26:24.750Z,2.50
2023-01-07T03:28:51.731Z,3.47
2023-01-07T03:33:52.898Z,2.65
2023-01-07T03:36:21.022Z,2.75
2023-01-07T03:38:48.135Z,3.03
2023-01-07T03:41:34.588Z,3.58
2023-01-07T03:44:00.828Z,3.40
2023-01-07T03:46:27.501Z,2.65
2023-01-07T03:48:53.779Z,3.08
2023-01-07T03:51:20.138Z,2.60
2023-01-07T03:53:46.342Z,3.08
2023-01-07T03:56:12.568Z,2.58
2023-01-07T03:58:38.854Z,2.92
2023-01-07T04:01:05.251Z,2.60
2023-01-07T04:03:31.556Z,3.08
2023-01-07T04:05:57.795Z,2.83
2023-01-07T04:08:24.051Z,3.38
2023-01-07T04:10:50.290Z,2.92
2023-01-07T04:13:16.608Z,2.30
2023-01-07T04:15:44.570Z,2.53
2023-01-07T04:18:10.789Z,2.58
2023-01-07T04:20:37.046Z,2.25
2023-01-07T04:23:03.345Z,2.85
2023-01-07T04:25:30.842Z,2.65
2023-01-07T04:27:57.100Z,2.72
2023-01-07T04:30:23.305Z,3.08
2023-01-07T04:32:49.524Z,3.17
2023-01-07T04:35:15.791Z,2.88
2023-01-07T04:37:41.985Z,2.88
2023-01-07T04:40:08.539Z,3.03
2023-01-07T04:42:34.788Z,2.45
2023-01-07T04:45:01.023Z,2.40
2023-01-07T04:47:27.376Z,2.28
2023-01-07T04:49:53.614Z,2.60
2023-01-07T04:52:19.808Z,2.35
2023-01-07T04:54:46.106Z,3.22
2023-01-07T04:57:12.436Z,2.47
2023-01-07T04:59:38.648Z,2.63
2023-01-07T05:02:04.995Z,3.53
2023-01-07T05:04:31.295Z,2.78
2023-01-07T05:06:57.624Z,2.55
2023-01-07T05:09:23.832Z,2.40
2023-01-07T05:11:50.048Z,2.65
2023-01-07T05:14:16.244Z,2.90
2023-01-07T05:16:42.603Z,2.47
2023-01-07T05:19:09.625Z,2.42
2023-01-07T05:21:35.837Z,2.47
2023-01-07T05:24:02.060Z,2.70
2023-01-07T05:26:28.318Z,2.33
2023-01-07T05:28:54.567Z,2.63
2023-01-07T05:31:20.891Z,3.00
2023-01-07T05:33:47.152Z,2.47
2023-01-07T05:36:13.453Z,2.65
2023-01-07T05:38:39.688Z,2.55
2023-01-07T05:41:05.901Z,3.67
2023-01-07T05:43:32.246Z,3.50
2023-01-07T05:45:59.292Z,3.45
2023-01-07T05:48:25.727Z,3.47
2023-01-07T05:50:51.942Z,2.95
2023-01-07T05:53:18.375Z,3.15
2023-01-07T05:55:44.673Z,3.13
2023-01-07T05:58:10.933Z,2.65
2023-01-07T06:00:37.236Z,2.95
2023-01-07T06:03:03.928Z,2.75
2023-01-07T06:05:30.261Z,2.90
2023-01-07T06:07:56.503Z,2.47
2023-01-07T06:10:22.710Z,2.58
2023-01-07T06:12:51.127Z,2.80
2023-01-07T06:15:17.685Z,2.40
2023-01-07T06:17:43.943Z,3.38
2023-01-07T06:20:10.565Z,2.58
2023-01-07T06:22:36.832Z,2.90
2023-01-07T06:25:03.420Z,2.97
2023-01-07T06:27:29.758Z,3.10
2023-01-07T06:29:55.967Z,3.20
2023-01-07T06:32:22.272Z,2.60
2023-01-07T06:34:48.480Z,2.60
2023-01-07T06:37:14.858Z,2.67
2023-01-07T06:39:41.106Z,2.90
2023-01-07T06:42:07.305Z,3.63
2023-01-07T06:44:33.516Z,15.25
2023-01-07T06:46:59.775Z,9.80
2023-01-07T06:49:25.987Z,4.90
2023-01-07T06:51:52.199Z,4.35
2023-01-07T06:54:18.382Z,3.42
2023-01-07T06:56:44.585Z,3.78
2023-01-07T06:59:10.884Z,3.72
2023-01-07T07:01:37.255Z,4.32
2023-01-07T07:04:03.621Z,3.90
2023-01-07T07:06:29.835Z,3.83
2023-01-07T07:08:56.088Z,3.25
2023-01-07T07:11:22.316Z,2.50
2023-01-07T07:13:48.510Z,9.95
2023-01-07T07:16:14.776Z,6.65
2023-01-07T07:18:41.051Z,4.88
2023-01-07T07:21:07.273Z,4.85
2023-01-07T07:23:33.471Z,4.05
2023-01-07T07:25:59.696Z,3.88
2023-01-07T07:28:25.891Z,3.28
2023-01-07T07:30:52.184Z,3.00
2023-01-07T07:33:19.375Z,3.03
2023-01-07T07:35:45.975Z,2.83
2023-01-07T07:38:12.254Z,2.30
2023-01-07T07:40:38.446Z,2.03
2023-01-07T07:43:11.052Z,2.17
2023-01-07T07:45:38.921Z,2.40
2023-01-07T07:48:05.725Z,2.13
2023-01-07T07:50:31.993Z,2.30
2023-01-07T07:52:58.209Z,2.03
2023-01-07T07:55:26.567Z,1.80
2023-01-07T07:57:56.493Z,2.03
2023-01-07T08:00:22.854Z,2.00
2023-01-07T08:02:49.083Z,2.33
2023-01-07T08:05:15.302Z,2.65
2023-01-07T08:07:42.021Z,2.38
2023-01-07T08:10:08.713Z,2.10
2023-01-07T08:12:38.375Z,3.80
2023-01-07T08:15:05.335Z,7.75
2023-01-07T08:19:57.709Z,5.05
2023-01-07T08:22:23.924Z,5.10
2023-01-07T08:24:50.118Z,3.72
2023-01-07T08:27:16.319Z,9.73
2023-01-07T08:29:42.533Z,19.48
2023-01-07T08:32:09.102Z,17.40
2023-01-07T08:34:35.283Z,10.43
2023-01-07T08:37:01.484Z,4.75
2023-01-07T08:39:27.892Z,3.63
2023-01-07T08:41:54.355Z,4.60
2023-01-07T08:44:20.566Z,2.65
2023-01-07T08:46:46.836Z,2.10
2023-01-07T08:49:13.240Z,2.10
2023-01-07T08:51:39.456Z,1.65
2023-01-07T08:54:05.722Z,3.65
2023-01-07T08:56:33.451Z,1.65
2023-01-07T08:58:59.869Z,1.80
2023-01-07T09:01:26.248Z,1.10
2023-01-07T09:03:52.548Z,2.85
2023-01-07T09:06:18.829Z,1.70
2023-01-07T09:08:45.055Z,1.70
2023-01-07T09:11:11.264Z,1.30
2023-01-07T09:13:37.463Z,0.82
2023-01-07T09:16:03.835Z,1.10
2023-01-07T09:18:30.272Z,1.05
2023-01-07T09:20:56.496Z,1.00
2023-01-07T09:23:23.637Z,0.98
2023-01-07T09:25:49.890Z,1.48
2023-01-07T09:28:16.240Z,1.25
2023-01-07T09:30:42.911Z,1.10
2023-01-07T09:33:09.148Z,1.17
2023-01-07T09:35:35.363Z,1.02
2023-01-07T09:38:01.594Z,1.30
2023-01-07T09:40:30.452Z,1.08
2023-01-07T09:42:59.432Z,1.42
2023-01-07T09:45:27.979Z,1.13
2023-01-07T09:47:55.262Z,1.02
2023-01-07T09:50:25.321Z,1.17
2023-01-07T09:52:52.995Z,1.00
2023-01-07T09:55:35.132Z,1.10
2023-01-07T09:58:01.504Z,1.10
2023-01-07T10:00:28.776Z,1.30
2023-01-07T10:02:58.166Z,1.02
2023-01-07T10:05:24.392Z,1.02
2023-01-07T10:08:31.878Z,1.00
2023-01-07T10:10:59.100Z,0.80
2023-01-07T10:13:44.283Z,0.70
2023-01-07T10:16:15.365Z,0.80
2023-01-07T10:19:00.318Z,1.60
2023-01-07T10:21:26.536Z,1.10
2023-01-07T10:24:11.519Z,0.80
2023-01-07T10:26:41.145Z,0.82
2023-01-07T10:29:16.958Z,0.60
2023-01-07T10:31:44.336Z,0.80
2023-01-07T10:34:15.396Z,0.60
2023-01-07T10:36:53.070Z,1.20
2023-01-07T10:39:57.578Z,0.63
2023-01-07T10:42:32.749Z,0.70
2023-01-07T10:44:58.918Z,0.60
2023-01-07T10:47:33.683Z,0.50
2023-01-07T10:49:59.940Z,0.93
2023-01-07T10:52:26.790Z,0.90
2023-01-07T10:55:00.757Z,1.08
2023-01-07T10:57:28.644Z,1.63
2023-01-07T10:59:57.263Z,1.50
2023-01-07T11:02:27.282Z,0.70
2023-01-07T11:04:54.747Z,0.90
2023-01-07T11:07:33.272Z,1.20
2023-01-07T11:10:04.296Z,2.50
2023-01-07T11:12:50.872Z,1.25
2023-01-07T11:15:27.106Z,1.23
2023-01-07T11:17:59.583Z,1.10
2023-01-07T11:20:44.541Z,1.15
2023-01-07T11:23:34.137Z,1.05
2023-01-07T11:26:12.398Z,1.42
2023-01-07T11:28:46.739Z,1.40
2023-01-07T11:31:12.944Z,0.75
2023-01-07T11:34:01.307Z,1.20
2023-01-07T11:39:08.485Z,0.70
2023-01-07T11:41:34.719Z,0.80
2023-01-07T11:44:01.029Z,1.35
2023-01-07T11:46:31.398Z,1.20
2023-01-07T11:49:00.768Z,0.98
2023-01-07T11:51:27.360Z,1.33
2023-01-07T11:53:55.931Z,0.90
2023-01-07T11:56:34.652Z,2.95
2023-01-07T11:59:14.157Z,1.38
2023-01-07T12:01:53.992Z,1.10
2023-01-07T12:04:28.620Z,1.70
2023-01-07T12:06:56.587Z,1.90
2023-01-07T12:09:32.090Z,1.90
2023-01-07T12:11:59.455Z,2.10
2023-01-07T12:14:27.671Z,1.60
2023-01-07T12:16:54.978Z,1.65
2023-01-07T12:19:24.375Z,24.42
2023-01-07T12:21:57.546Z,3.38
2023-01-07T12:24:32.534Z,1.83
2023-01-07T12:27:06.536Z,2.20
2023-01-07T12:29:51.032Z,1.73
2023-01-07T12:32:27.416Z,2.13
2023-01-07T12:34:56.652Z,1.77
2023-01-07T12:37:35.538Z,1.50
2023-01-07T12:40:12.059Z,1.15
2023-01-07T12:42:40.728Z,1.48
2023-01-07T12:45:13.820Z,1.30
2023-01-07T12:47:42.035Z,1.40
2023-01-07T12:50:16.528Z,1.55
2023-01-07T12:52:42.782Z,1.77
2023-01-07T12:55:29.256Z,1.90
2023-01-07T12:58:16.628Z,2.78
2023-01-07T13:00:46.776Z,1.95
2023-01-07T13:03:12.960Z,1.80
2023-01-07T13:05:42.687Z,1.77
2023-01-07T13:08:11.599Z,1.25
2023-01-07T13:10:55.961Z,1.40
2023-01-07T13:13:24.909Z,1.48
2023-01-07T13:15:51.430Z,1.73
2023-01-07T13:18:18.505Z,1.67
2023-01-07T13:23:16.240Z,2.17
2023-01-07T13:26:01.160Z,1.27
2023-01-07T13:28:34.363Z,1.80
2023-01-07T13:31:06.693Z,2.28
2023-01-07T13:33:33.503Z,1.95
2023-01-07T13:36:11.980Z,1.90
2023-01-07T13:38:44.565Z,2.28
2023-01-07T13:41:10.767Z,1.98
2023-01-07T13:43:49.103Z,1.95
2023-01-07T13:46:17.439Z,2.40
2023-01-07T13:48:51.159Z,1.95
2023-01-07T13:51:24.913Z,1.75
2023-01-07T13:53:51.134Z,2.00
2023-01-07T13:56:17.350Z,2.00
2023-01-07T13:58:46.338Z,1.88
2023-01-07T14:01:14.157Z,2.33
2023-01-07T14:03:44.988Z,1.90
2023-01-07T14:06:20.255Z,1.58
2023-01-07T14:08:50.439Z,1.98
2023-01-07T14:11:17.204Z,2.45
2023-01-07T14:13:54.043Z,1.77
2023-01-07T14:16:26.565Z,2.08
2023-01-07T14:18:55.690Z,1.98
2023-01-07T14:21:51.305Z,2.40
2023-01-07T14:24:35.999Z,2.13
2023-01-07T14:27:21.144Z,2.10
2023-01-07T14:29:54.351Z,2.10
2023-01-07T14:32:27.965Z,2.30
2023-01-07T14:34:56.951Z,3.03
2023-01-07T14:37:34.092Z,2.60
2023-01-07T14:40:00.505Z,2.45
2023-01-07T14:42:38.783Z,2.60
2023-01-07T14:45:25.011Z,2.03
2023-01-07T14:47:52.522Z,2.13
2023-01-07T14:50:28.227Z,3.63
2023-01-07T14:53:13.287Z,8.93
2023-01-07T14:55:50.863Z,3.22
2023-01-07T15:00:49.311Z,3.38
2023-01-07T15:03:37.970Z,4.75
2023-01-07T15:06:07.180Z,4.43
2023-01-07T15:09:01.779Z,3.10
2023-01-07T15:11:47.028Z,4.35
2023-01-07T15:14:40.913Z,3.17
2023-01-07T15:17:08.078Z,3.03
2023-01-07T15:19:38.295Z,6.10
2023-01-07T15:22:23.351Z,3.08
2023-01-07T15:24:55.476Z,6.65
2023-01-07T15:27:33.949Z,3.63
2023-01-07T15:30:18.998Z,4.00
2023-01-07T15:33:04.092Z,5.60
2023-01-07T15:35:34.524Z,3.50
2023-01-07T15:38:04.846Z,5.57
2023-01-07T15:40:31.165Z,6.43
2023-01-07T15:42:58.347Z,4.07
2023-01-07T15:45:26.783Z,4.20
2023-01-07T15:48:03.923Z,4.15
2023-01-07T15:50:30.800Z,3.20
2023-01-07T15:55:35.262Z,3.55
2023-01-07T15:58:06.273Z,3.33
2023-01-07T16:00:34.675Z,3.20
2023-01-07T16:03:01.402Z,3.33
2023-01-07T16:05:27.705Z,2.83
2023-01-07T16:07:54.758Z,2.55
2023-01-07T16:10:22.379Z,2.45
2023-01-07T16:12:50.263Z,2.50
2023-01-07T16:15:43.040Z,3.42
2023-01-07T16:18:09.251Z,2.95
2023-01-07T16:20:36.625Z,2.40
2023-01-07T16:23:18.126Z,2.40
2023-01-07T16:25:46.261Z,2.70
2023-01-07T16:28:23.602Z,2.58
2023-01-07T16:30:50.735Z,3.05
2023-01-07T16:33:18.816Z,3.22
2023-01-07T16:35:46.443Z,2.70
2023-01-07T16:38:13.648Z,2.63
2023-01-07T16:40:40.048Z,2.60
2023-01-07T16:43:26.211Z,2.88
2023-01-07T16:46:07.391Z,2.40
2023-01-07T16:48:33.640Z,3.10
2023-01-07T16:51:00.027Z,3.00
2023-01-07T16:53:35.219Z,2.15
2023-01-07T16:56:11.268Z,2.75
2023-01-07T16:58:47.493Z,2.90
2023-01-07T17:01:15.201Z,2.17
2023-01-07T17:03:53.172Z,2.22
2023-01-07T17:06:23.556Z,2.75
2023-01-07T17:08:50.847Z,3.42
2023-01-07T17:11:22.733Z,3.13
2023-01-07T17:13:49.111Z,2.95
2023-01-07T17:16:20.759Z,3.28
2023-01-07T17:18:47.004Z,4.97
2023-01-07T17:21:33.027Z,4.50
2023-01-07T17:23:59.318Z,5.90
2023-01-07T17:26:27.094Z,5.25
2023-01-07T17:28:59.062Z,6.20
2023-01-07T17:31:25.733Z,4.32
2023-01-07T17:33:53.113Z,4.15
2023-01-07T17:36:20.556Z,3.35
2023-01-07T17:38:47.129Z,5.30
2023-01-07T17:41:38.989Z,3.90
2023-01-07T17:44:06.112Z,4.72
2023-01-07T17:46:32.731Z,2.67
2023-01-07T17:48:59.545Z,3.22
2023-01-07T17:51:26.546Z,3.78
2023-01-07T17:56:19.368Z,3.17
2023-01-07T17:58:45.853Z,3.78
2023-01-07T18:01:13.468Z,3.92
2023-01-07T18:03:39.770Z,3.08
2023-01-07T18:06:14.195Z,3.70
2023-01-07T18:08:40.394Z,3.75
2023-01-07T18:11:25.441Z,3.53
2023-01-07T18:13:51.636Z,3.67
2023-01-07T18:16:17.926Z,4.60
2023-01-07T18:18:44.156Z,5.35
2023-01-07T18:21:11.347Z,7.32
2023-01-07T18:23:38.506Z,8.05
2023-01-07T18:26:05.443Z,9.05
2023-01-07T18:30:57.934Z,9.45
2023-01-07T18:33:24.192Z,9.43
2023-01-07T18:35:50.406Z,11.10
2023-01-07T18:38:16.632Z,12.75
2023-01-07T18:40:43.395Z,13.00
2023-01-07T18:43:16.647Z,14.75
2023-01-07T18:45:43.572Z,9.85
2023-01-07T18:50:36.147Z,8.07
2023-01-07T18:53:02.790Z,8.27
2023-01-07T18:55:29.375Z,7.95
2023-01-07T18:57:55.604Z,8.57
2023-01-07T19:00:21.855Z,6.65
2023-01-07T19:02:48.093Z,5.22
2023-01-07T19:05:14.416Z,5.25
2023-01-07T19:07:41.328Z,4.68
2023-01-07T19:12:33.991Z,4.28
2023-01-07T19:15:00.448Z,4.43
2023-01-07T19:17:26.683Z,4.72
2023-01-07T19:19:52.897Z,6.05
2023-01-07T19:22:20.148Z,4.90
2023-01-07T19:24:46.360Z,6.10
2023-01-07T19:27:12.659Z,8.02
2023-01-07T19:29:38.867Z,9.18
2023-01-07T19:32:05.256Z,7.47
2023-01-07T19:34:31.523Z,8.18
2023-01-07T19:36:57.810Z,8.45
2023-01-07T19:39:24.323Z,10.55
2023-01-07T19:41:50.570Z,9.27
2023-01-07T19:44:16.866Z,19.25
2023-01-07T19:46:44.026Z,23.50
2023-01-07T19:49:11.356Z,23.23
2023-01-07T19:51:39.087Z,17.73
2023-01-07T19:54:05.722Z,17.10
2023-01-07T19:56:32.012Z,17.38
2023-01-07T19:58:58.873Z,19.45
2023-01-07T20:01:26.623Z,16.50
2023-01-07T20:03:53.502Z,13.82
2023-01-07T20:06:21.985Z,12.57
2023-01-07T20:08:48.446Z,12.68
2023-01-07T20:11:14.869Z,12.50
2023-01-07T20:13:41.360Z,12.02
2023-01-07T20:16:11.944Z,20.65
2023-01-07T20:18:39.128Z,22.05
2023-01-07T20:21:05.666Z,16.55
2023-01-07T20:23:33.768Z,12.20
2023-01-07T20:26:01.863Z,10.07
2023-01-07T20:28:28.791Z,13.45
2023-01-07T20:33:21.196Z,12.40
2023-01-07T20:35:47.471Z,13.13
2023-01-07T20:38:14.078Z,12.25
2023-01-07T20:40:40.697Z,10.50
2023-01-07T20:43:07.551Z,10.13
2023-01-07T20:45:36.741Z,9.38
2023-01-07T20:48:04.369Z,9.02
2023-01-07T20:50:31.942Z,8.38
2023-01-07T20:52:58.160Z,8.18
2023-01-07T20:55:24.540Z,6.68
2023-01-07T20:57:50.817Z,6.63
2023-01-07T21:00:17.166Z,5.88
2023-01-07T21:02:43.466Z,6.35
2023-01-07T21:05:10.279Z,6.78
2023-01-07T21:07:36.640Z,6.00
2023-01-07T21:10:03.027Z,6.28
2023-01-07T21:12:29.243Z,6.72
2023-01-07T21:14:55.467Z,6.78
2023-01-07T21:17:21.687Z,7.55
2023-01-07T21:19:48.291Z,8.18
2023-01-07T21:22:15.591Z,9.20
2023-01-07T21:24:41.853Z,11.63
2023-01-07T21:27:08.129Z,10.20
2023-01-07T21:29:34.347Z,9.85
2023-01-07T21:32:00.760Z,9.82
2023-01-07T21:34:27.095Z,9.63
2023-01-07T21:36:53.360Z,9.38
2023-01-07T21:39:19.599Z,10.13
2023-01-07T21:41:45.822Z,9.95
2023-01-07T21:44:12.464Z,8.48
2023-01-07T21:46:38.886Z,8.00
2023-01-07T21:49:06.016Z,9.40
2023-01-07T21:51:32.295Z,9.40
2023-01-07T21:53:58.580Z,8.82
2023-01-07T21:56:26.326Z,9.02
2023-01-07T21:58:52.616Z,7.63
2023-01-07T22:01:19.145Z,7.53
2023-01-07T22:03:49.092Z,7.55
2023-01-07T22:06:17.452Z,7.07
2023-01-07T22:08:43.674Z,7.53
2023-01-07T22:11:12.441Z,7.20
2023-01-07T22:13:38.656Z,6.95
2023-01-07T22:16:05.233Z,7.38
2023-01-07T22:18:31.833Z,7.10
2023-01-07T22:20:58.081Z,6.90
2023-01-07T22:23:24.364Z,6.45
2023-01-07T22:25:50.678Z,6.40
2023-01-07T22:28:18.085Z,6.38
2023-01-07T22:30:48.366Z,6.10
2023-01-07T22:33:14.668Z,7.00
2023-01-07T22:35:40.953Z,6.97
2023-01-07T22:38:07.658Z,6.32
2023-01-07T22:40:36.438Z,6.45
2023-01-07T22:43:06.050Z,7.00
2023-01-07T22:45:32.329Z,7.03
2023-01-07T22:47:58.978Z,6.53
2023-01-07T22:50:25.223Z,6.25
2023-01-07T22:52:51.501Z,6.63
2023-01-07T22:55:18.489Z,6.45
2023-01-07T22:57:44.720Z,6.10
2023-01-07T23:00:16.008Z,5.72
2023-01-07T23:02:42.230Z,6.18
2023-01-07T23:05:08.558Z,5.90
2023-01-07T23:07:34.766Z,5.95
2023-01-07T23:10:01.033Z,6.03
2023-01-07T23:12:27.301Z,6.20
2023-01-07T23:14:53.522Z,5.85
2023-01-07T23:17:19.760Z,5.95
2023-01-07T23:19:46.089Z,6.10
2023-01-07T23:22:12.310Z,5.93
2023-01-07T23:24:38.625Z,6.22
2023-01-07T23:27:04.855Z,6.13
2023-01-07T23:29:31.125Z,6.00
2023-01-07T23:31:57.462Z,5.97
2023-01-07T23:34:23.828Z,6.90
2023-01-07T23:36:50.129Z,7.03
2023-01-07T23:39:16.384Z,6.60
2023-01-07T23:41:42.693Z,8.73
2023-01-07T23:44:08.964Z,7.85
2023-01-07T23:46:35.205Z,9.35
2023-01-07T23:49:01.478Z,9.40
2023-01-07T23:51:27.747Z,9.07
2023-01-07T23:53:54.060Z,8.63
2023-01-07T23:56:20.884Z,7.43
